Time;durP1;ratioP1;P1;durP2;ratioP2;P2;SDS_P1;SDS_P2;PMS_P1;PMS_P2;Temp;Humidity;BMP_temperature;BMP_pressure;BME280_temperature;BME280_humidity;BME280_pressure;Samples;Min_cycle;Max_cycle;Signal;HPM_P1;HPM_P2
2022/09/20 00:01:21;;;;;;;5.07;3.20;;;18.00;99.90;;;;;;4593137;19;20021;-45
2022/09/20 00:02:52;;;;;;;5.30;3.65;;;18.00;99.90;;;;;;4593297;19;20023;-45
2022/09/20 00:04:23;;;;;;;7.47;4.32;;;18.00;99.90;;;;;;4592197;19;20010;-45
2022/09/20 00:05:58;;;;;;;7.32;4.00;;;18.00;99.90;;;;;;4592744;19;20043;-45
2022/09/20 00:07:30;;;;;;;6.63;3.35;;;18.00;99.90;;;;;;4592244;19;20006;-45
2022/09/20 00:09:02;;;;;;;5.03;3.28;;;18.00;99.90;;;;;;4592712;19;20070;-44
2022/09/20 00:10:35;;;;;;;5.53;2.95;;;18.00;99.90;;;;;;4592988;19;20349;-45
2022/09/20 00:12:07;;;;;;;5.40;3.20;;;18.00;99.90;;;;;;4592135;19;20018;-45
2022/09/20 00:13:38;;;;;;;7.95;4.45;;;18.00;99.90;;;;;;4591347;19;20468;-45
2022/09/20 00:15:09;;;;;;;11.38;6.47;;;18.10;99.90;;;;;;4593036;19;20038;-44
2022/09/20 00:16:40;;;;;;;11.40;7.30;;;18.10;99.90;;;;;;4592183;19;20006;-45
2022/09/20 00:18:12;;;;;;;;;;;18.10;99.90;;;;;;4593275;19;20039;-45
2022/09/20 00:19:43;;;;;;;10.70;6.72;;;18.10;99.90;;;;;;4592684;19;19915;-45
2022/09/20 00:21:18;;;;;;;11.57;7.63;;;18.10;99.90;;;;;;4592987;19;20027;-45
2022/09/20 00:22:49;;;;;;;12.20;7.90;;;18.10;99.90;;;;;;4592793;19;20022;-45
2022/09/20 00:24:20;;;;;;;13.82;8.73;;;18.10;99.90;;;;;;4592978;19;20605;-45
2022/09/20 00:25:55;;;;;;;16.50;9.07;;;18.10;99.90;;;;;;4593236;19;20007;-46
2022/09/20 00:27:27;;;;;;;12.07;7.88;;;18.10;99.90;;;;;;4592945;19;20018;-45
2022/09/20 00:28:58;;;;;;;16.60;9.05;;;18.10;99.90;;;;;;4592671;19;20015;-44
2022/09/20 00:30:30;;;;;;;16.60;10.15;;;18.10;99.90;;;;;;4592649;19;20006;-45
2022/09/20 00:32:01;;;;;;;15.43;9.43;;;18.10;99.90;;;;;;4592778;19;20066;-45
2022/09/20 00:35:22;;;;;;;12.15;7.32;;;18.10;99.90;;;;;;4591499;19;20019;-45
2022/09/20 00:36:53;;;;;;;11.48;7.50;;;18.10;99.90;;;;;;4592372;19;20011;-45
2022/09/20 00:38:24;;;;;;;13.82;7.05;;;18.10;99.90;;;;;;4592840;19;20010;-44
2022/09/20 00:39:55;;;;;;;10.90;7.15;;;18.10;99.90;;;;;;4592867;19;20029;-45
2022/09/20 00:41:26;;;;;;;14.07;7.78;;;18.10;99.90;;;;;;4592721;19;20026;-45
2022/09/20 00:42:58;;;;;;;12.38;7.97;;;18.10;99.90;;;;;;4591330;19;20090;-45
2022/09/20 00:44:46;;;;;;;8.80;6.78;;;18.10;99.90;;;;;;4591950;19;20007;-44
2022/09/20 00:46:23;;;;;;;9.90;6.85;;;18.10;99.90;;;;;;4592535;19;20010;-45
2022/09/20 00:48:01;;;;;;;10.88;7.30;;;18.10;99.90;;;;;;4592561;19;20011;-45
2022/09/20 00:49:32;;;;;;;14.85;8.55;;;18.10;99.90;;;;;;4591054;19;20018;-45
2022/09/20 00:51:07;;;;;;;18.05;10.43;;;18.20;99.90;;;;;;4591213;19;20510;-45
2022/09/20 00:52:38;;;;;;;15.07;9.35;;;18.10;99.90;;;;;;4590714;19;20013;-45
2022/09/20 00:54:09;;;;;;;12.93;8.07;;;18.10;99.90;;;;;;4592192;19;20002;-45
2022/09/20 00:55:51;;;;;;;12.55;8.32;;;18.20;99.90;;;;;;4591109;19;20234;-45
2022/09/20 00:57:22;;;;;;;14.48;9.32;;;18.10;99.90;;;;;;4592290;19;20074;-44
2022/09/20 00:59:16;;;;;;;15.30;9.00;;;18.20;99.90;;;;;;4592055;19;20003;-45
2022/09/20 01:00:47;;;;;;;16.60;9.30;;;18.20;99.90;;;;;;4592308;19;20532;-45
2022/09/20 01:02:27;;;;;;;20.05;10.80;;;18.20;99.90;;;;;;4592023;19;20033;-45
2022/09/20 01:03:58;;;;;;;28.27;14.90;;;18.20;99.90;;;;;;4590741;19;20066;-45
2022/09/20 01:05:29;;;;;;;27.42;14.15;;;18.20;99.90;;;;;;4590707;19;20326;-45
2022/09/20 01:07:01;;;;;;;29.35;15.40;;;18.10;99.90;;;;;;4590768;19;20060;-45
2022/09/20 01:08:33;;;;;;;36.25;19.15;;;18.20;99.90;;;;;;4590604;19;20035;-45
2022/09/20 01:10:05;;;;;;;34.95;17.23;;;18.20;99.90;;;;;;4590768;19;20006;-45
2022/09/20 01:11:35;;;;;;;33.33;17.33;;;18.20;99.90;;;;;;4590648;19;20015;-43
2022/09/20 01:13:07;;;;;;;27.70;15.45;;;18.20;99.90;;;;;;4589318;19;20041;-45
2022/09/20 01:14:38;;;;;;;20.75;12.18;;;18.20;99.90;;;;;;4591295;19;20010;-45
2022/09/20 01:16:09;;;;;;;21.23;11.27;;;18.20;99.90;;;;;;4590517;19;20018;-45
2022/09/20 01:17:44;;;;;;;22.20;10.65;;;18.20;99.90;;;;;;4590737;19;20010;-40
2022/09/20 01:19:53;;;;;;;22.15;12.10;;;18.20;99.90;;;;;;4590910;19;20547;-44
2022/09/20 01:21:24;;;;;;;18.75;10.52;;;18.20;99.90;;;;;;4591770;19;20010;-45
2022/09/20 01:22:58;;;;;;;14.82;9.55;;;18.20;99.90;;;;;;4590335;19;20027;-44
2022/09/20 01:24:33;;;;;;;15.60;8.77;;;18.10;99.90;;;;;;4591141;19;20024;-45
2022/09/20 01:26:14;;;;;;;12.13;7.95;;;18.20;99.90;;;;;;4590224;19;20429;-45
2022/09/20 01:27:48;;;;;;;12.15;8.00;;;18.20;99.90;;;;;;4590284;19;20350;-45
2022/09/20 01:29:41;;;;;;;11.00;7.47;;;18.20;99.90;;;;;;4590354;19;20011;-44
2022/09/20 01:31:16;;;;;;;9.18;5.97;;;18.20;99.90;;;;;;4591301;19;20014;-45
2022/09/20 01:32:58;;;;;;;10.98;6.38;;;18.20;99.90;;;;;;4590002;19;20769;-45
2022/09/20 01:34:35;;;;;;;;;;;18.20;99.90;;;;;;4591311;19;20027;-45
2022/09/20 01:36:06;;;;;;;8.25;5.72;;;18.20;99.90;;;;;;4590415;19;19915;-45
2022/09/20 01:38:05;;;;;;;9.57;6.43;;;18.20;99.90;;;;;;4590077;19;20483;-45
2022/09/20 01:39:54;;;;;;;7.50;5.63;;;18.20;99.90;;;;;;4588902;19;20020;-45
2022/09/20 01:41:51;;;;;;;8.15;5.28;;;18.20;99.90;;;;;;4589024;19;20010;-45
2022/09/20 01:43:37;;;;;;;8.48;5.35;;;18.20;99.90;;;;;;4588810;19;20546;-45
2022/09/20 01:45:17;;;;;;;8.27;6.03;;;18.20;99.90;;;;;;4589045;19;20021;-43
2022/09/20 01:46:58;;;;;;;7.68;5.18;;;18.20;99.90;;;;;;4589167;19;20021;-45
2022/09/20 01:48:37;;;;;;;8.88;6.20;;;18.20;99.90;;;;;;4588909;19;20011;-45
2022/09/20 01:50:18;;;;;;;10.50;6.30;;;18.20;99.90;;;;;;4588920;19;20110;-45
2022/09/20 01:52:16;;;;;;;11.95;8.25;;;18.20;99.90;;;;;;4588778;19;20017;-45
2022/09/20 01:54:14;;;;;;;11.35;7.43;;;18.20;99.90;;;;;;4587696;19;20502;-44
2022/09/20 01:55:53;;;;;;;12.63;7.63;;;18.20;99.90;;;;;;4588524;19;20039;-45
2022/09/20 01:57:48;;;;;;;14.75;8.20;;;18.20;99.90;;;;;;4586224;19;20014;-45
2022/09/20 01:59:45;;;;;;;12.68;8.07;;;18.20;99.90;;;;;;4589002;19;20145;-45
2022/09/20 02:01:22;;;;;;;11.88;8.57;;;18.20;99.90;;;;;;4588351;19;20035;-45
2022/09/20 02:03:16;;;;;;;11.57;7.38;;;18.20;99.90;;;;;;4588721;19;20018;-45
2022/09/20 02:04:50;;;;;;;10.18;5.88;;;18.20;99.90;;;;;;4588078;19;20119;-45
2022/09/20 02:06:45;;;;;;;9.55;6.65;;;18.20;99.90;;;;;;4588408;19;20120;-45
2022/09/20 02:08:16;;;;;;;11.27;6.57;;;18.20;99.90;;;;;;4588221;19;20574;-45
2022/09/20 02:10:21;;;;;;;12.00;8.02;;;18.20;99.90;;;;;;4588499;19;20010;-45
2022/09/20 02:12:11;;;;;;;11.18;7.55;;;18.20;99.90;;;;;;4588511;19;20488;-45
2022/09/20 02:13:42;;;;;;;12.77;8.50;;;18.20;99.90;;;;;;4587053;19;20502;-45
2022/09/20 02:15:25;;;;;;;16.52;10.25;;;18.20;99.90;;;;;;4588280;19;20007;-43
2022/09/20 02:16:56;;;;;;;16.48;11.55;;;18.20;99.90;;;;;;4588203;19;20357;-45
2022/09/20 02:19:06;;;;;;;13.85;9.88;;;18.20;99.90;;;;;;4588071;19;20078;-45
2022/09/20 02:20:43;;;;;;;9.82;7.60;;;18.20;99.90;;;;;;4588252;19;20384;-45
2022/09/20 02:22:34;;;;;;;11.93;6.78;;;18.20;99.90;;;;;;4588393;19;20010;-45
2022/09/20 02:24:28;;;;;;;9.50;6.88;;;18.20;99.90;;;;;;4588411;19;20062;-45
2022/09/20 02:26:18;;;;;;;9.57;7.30;;;18.20;99.90;;;;;;4588268;19;20117;-45
2022/09/20 02:28:04;;;;;;;9.38;6.68;;;18.20;99.90;;;;;;4588407;19;20014;-45
2022/09/20 02:29:57;;;;;;;7.05;5.60;;;18.20;99.90;;;;;;4587867;19;20022;-45
2022/09/20 02:31:49;;;;;;;7.40;5.57;;;18.20;99.90;;;;;;4587920;19;20017;-45
2022/09/20 02:33:46;;;;;;;;;;;18.20;99.90;;;;;;4588722;19;20567;-46
2022/09/20 02:35:28;;;;;;;6.78;5.47;;;18.20;99.90;;;;;;4587737;19;19935;-45
2022/09/20 02:37:32;;;;;;;5.95;3.88;;;18.20;99.90;;;;;;4588333;19;20010;-44
2022/09/20 02:39:11;;;;;;;7.55;4.95;;;18.20;99.90;;;;;;4587998;19;20014;-45
2022/09/20 02:40:53;;;;;;;6.57;4.70;;;18.20;99.90;;;;;;4588121;19;20347;-45
2022/09/20 02:42:37;;;;;;;6.55;5.18;;;18.20;99.90;;;;;;4587857;19;20034;-46
2022/09/20 02:44:21;;;;;;;8.60;4.82;;;18.20;99.90;;;;;;4587667;19;20087;-45
2022/09/20 02:46:27;;;;;;;7.60;4.13;;;18.20;99.90;;;;;;4587763;19;20010;-45
2022/09/20 02:48:01;;;;;;;5.85;3.80;;;18.20;99.90;;;;;;4587377;19;20048;-45
2022/09/20 02:50:08;;;;;;;6.20;4.22;;;18.20;99.90;;;;;;4587459;19;20027;-45
2022/09/20 02:51:43;;;;;;;6.53;4.30;;;18.20;99.90;;;;;;4587229;19;20359;-45
2022/09/20 02:53:44;;;;;;;5.15;3.05;;;18.20;99.90;;;;;;4586725;19;20010;-45
2022/09/20 02:55:33;;;;;;;6.57;3.28;;;18.20;99.90;;;;;;4587810;19;20015;-45
2022/09/20 02:57:10;;;;;;;5.88;3.60;;;18.20;99.90;;;;;;4587384;19;20109;-45
2022/09/20 02:58:59;;;;;;;7.30;3.63;;;18.20;99.90;;;;;;4587214;19;20036;-45
2022/09/20 03:01:07;;;;;;;6.07;4.07;;;18.20;99.90;;;;;;4587146;19;20025;-45
2022/09/20 03:03:02;;;;;;;8.50;4.75;;;18.20;99.90;;;;;;4586847;19;20029;-45
2022/09/20 03:04:48;;;;;;;7.30;4.65;;;18.20;99.90;;;;;;4587199;19;20014;-45
2022/09/20 03:06:40;;;;;;;7.13;4.50;;;18.20;99.90;;;;;;4586922;19;20030;-45
2022/09/20 03:08:25;;;;;;;6.07;3.85;;;18.20;99.90;;;;;;4586771;19;20010;-45
2022/09/20 03:10:09;;;;;;;5.32;3.67;;;18.20;99.90;;;;;;4586984;19;20351;-45
2022/09/20 03:12:22;;;;;;;5.82;3.85;;;18.20;99.90;;;;;;4587333;19;20029;-45
2022/09/20 03:14:12;;;;;;;;;;;18.20;99.90;;;;;;4587039;19;20013;-45
2022/09/20 03:16:26;;;;;;;7.60;4.75;;;18.20;99.90;;;;;;4587255;19;19914;-45
2022/09/20 03:18:27;;;;;;;9.55;5.82;;;18.20;99.90;;;;;;4611301;19;21470;-36
2022/09/20 03:20:01;;;;;;;9.75;5.10;;;18.20;99.90;;;;;;4611977;19;20010;-36
2022/09/20 03:21:59;;;;;;;7.68;5.10;;;18.20;99.90;;;;;;4611774;19;20014;-36
2022/09/20 03:24:05;;;;;;;8.60;5.32;;;18.20;99.90;;;;;;4610746;19;20081;-36
2022/09/20 03:25:44;;;;;;;7.47;4.63;;;18.20;99.90;;;;;;4610745;19;20010;-36
2022/09/20 03:27:30;;;;;;;6.20;3.55;;;18.20;99.90;;;;;;4610770;19;20057;-36
2022/09/20 03:29:25;;;;;;;6.78;3.72;;;18.20;99.90;;;;;;4610781;19;20018;-36
2022/09/20 03:30:59;;;;;;;7.03;3.60;;;18.20;99.90;;;;;;4611748;19;20018;-36
2022/09/20 03:32:46;;;;;;;8.05;4.28;;;18.20;99.90;;;;;;4611466;19;20044;-36
2022/09/20 03:34:20;;;;;;;8.10;3.63;;;18.20;99.90;;;;;;4610524;19;20491;-36
2022/09/20 03:36:09;;;;;;;8.15;3.95;;;18.20;99.90;;;;;;4611264;19;20035;-36
2022/09/20 03:38:16;;;;;;;7.75;3.92;;;18.20;99.90;;;;;;4610228;19;20522;-36
2022/09/20 03:40:10;;;;;;;7.75;3.53;;;18.20;99.90;;;;;;4609167;19;20049;-36
2022/09/20 03:42:09;;;;;;;8.15;3.60;;;18.20;99.90;;;;;;4609066;19;20035;-36
2022/09/20 03:43:47;;;;;;;5.25;3.00;;;18.20;99.90;;;;;;4609342;19;20683;-36
2022/09/20 03:45:45;;;;;;;4.88;2.80;;;18.20;99.90;;;;;;4609169;19;20043;-36
2022/09/20 03:47:43;;;;;;;4.13;2.10;;;18.20;99.90;;;;;;4609122;19;20010;-36
2022/09/20 03:49:46;;;;;;;3.47;2.40;;;18.20;99.90;;;;;;4609366;19;20010;-36
2022/09/20 03:51:27;;;;;;;4.38;2.78;;;18.20;99.90;;;;;;4609411;19;20341;-36
2022/09/20 03:53:15;;;;;;;4.07;2.70;;;18.20;99.90;;;;;;4609024;19;20482;-36
2022/09/20 03:54:56;;;;;;;3.75;2.55;;;18.20;99.90;;;;;;4609102;19;20019;-36
2022/09/20 03:56:48;;;;;;;5.57;3.17;;;18.20;99.90;;;;;;4608919;19;20045;-36
2022/09/20 03:58:29;;;;;;;5.15;2.28;;;18.20;99.90;;;;;;4608993;19;20080;-36
2022/09/20 04:00:22;;;;;;;4.18;2.90;;;18.20;99.90;;;;;;4609017;19;20041;-36
2022/09/20 04:02:11;;;;;;;;;;;18.20;99.90;;;;;;4609803;19;20048;-36
2022/09/20 04:03:48;;;;;;;7.78;3.80;;;18.20;99.90;;;;;;4608696;19;20014;-36
2022/09/20 04:05:42;;;;;;;6.13;3.45;;;18.20;99.90;;;;;;4608571;19;20377;-36
2022/09/20 04:07:23;;;;;;;6.80;3.35;;;18.20;99.90;;;;;;4608715;19;20013;-36
2022/09/20 04:09:08;;;;;;;8.50;5.32;;;18.20;99.90;;;;;;4608697;19;20572;-36
2022/09/20 04:11:27;;;;;;;9.07;5.10;;;18.20;99.90;;;;;;4608814;19;20367;-36
2022/09/20 04:13:06;;;;;;;8.63;5.25;;;18.20;99.90;;;;;;4607322;19;20021;-36
2022/09/20 04:15:12;;;;;;;8.25;4.38;;;18.20;99.90;;;;;;4608506;19;20029;-36
2022/09/20 04:17:05;;;;;;;5.78;3.45;;;18.10;99.90;;;;;;4607767;19;20018;-36
2022/09/20 04:19:03;;;;;;;5.30;3.53;;;18.20;99.90;;;;;;4608840;19;20013;-36
2022/09/20 04:20:46;;;;;;;5.75;3.72;;;18.20;99.90;;;;;;4608803;19;20002;-36
2022/09/20 04:22:19;;;;;;;7.30;4.05;;;18.20;99.90;;;;;;4608708;19;20027;-36
2022/09/20 04:24:13;;;;;;;6.50;3.63;;;18.20;99.90;;;;;;4608091;19;20520;-36
2022/09/20 04:25:46;;;;;;;6.35;3.92;;;18.20;99.90;;;;;;4608197;19;20062;-36
2022/09/20 04:27:19;;;;;;;6.65;4.03;;;18.10;99.90;;;;;;4608254;19;20014;-36
2022/09/20 04:28:58;;;;;;;6.07;3.78;;;18.20;99.90;;;;;;4599009;19;20014;-36
2022/09/20 04:30:30;;;;;;;5.25;3.35;;;18.20;99.90;;;;;;4590370;19;20013;-36
2022/09/20 04:32:31;;;;;;;8.02;3.97;;;18.20;99.90;;;;;;4590132;19;20026;-36
2022/09/20 04:34:03;;;;;;;6.82;4.53;;;18.20;99.90;;;;;;4590278;19;20495;-36
2022/09/20 04:37:35;;;;;;;7.32;3.92;;;18.20;99.90;;;;;;4589153;19;20040;-36
2022/09/20 04:39:12;;;;;;;8.38;4.07;;;18.20;99.90;;;;;;4590025;19;20082;-36
2022/09/20 04:40:58;;;;;;;5.82;4.03;;;18.20;99.90;;;;;;4590098;19;20014;-36
2022/09/20 04:43:06;;;;;;;4.00;2.85;;;18.10;99.90;;;;;;4590216;19;20010;-36
2022/09/20 04:45:07;;;;;;;5.10;3.40;;;18.20;99.90;;;;;;4590148;19;20031;-36
2022/09/20 04:47:04;;;;;;;5.90;3.58;;;18.20;99.90;;;;;;4590021;19;20078;-36
2022/09/20 04:48:47;;;;;;;4.97;3.58;;;18.20;99.90;;;;;;4590115;19;20011;-36
2022/09/20 04:50:28;;;;;;;6.03;3.58;;;18.20;99.90;;;;;;4589636;19;20032;-36
2022/09/20 04:52:28;;;;;;;6.32;3.67;;;18.20;99.90;;;;;;4590201;19;20032;-36
2022/09/20 04:54:18;;;;;;;5.88;3.20;;;18.20;99.90;;;;;;4589448;19;20065;-36
2022/09/20 04:55:52;;;;;;;5.97;3.38;;;18.20;99.90;;;;;;4588973;19;20387;-36
2022/09/20 04:57:26;;;;;;;5.53;3.80;;;18.20;99.90;;;;;;4588407;19;20021;-36
2022/09/20 04:59:06;;;;;;;7.00;3.50;;;18.20;99.90;;;;;;4588974;19;20030;-36
2022/09/20 05:00:58;;;;;;;5.47;3.40;;;18.20;99.90;;;;;;4588613;19;20045;-36
2022/09/20 05:02:41;;;;;;;6.53;3.92;;;18.20;99.90;;;;;;4588683;19;20445;-36
2022/09/20 05:04:49;;;;;;;6.82;4.53;;;18.20;99.90;;;;;;4588966;19;20077;-36
2022/09/20 05:06:57;;;;;;;5.90;3.55;;;18.20;99.90;;;;;;4589008;19;20006;-36
2022/09/20 05:08:54;;;;;;;5.18;3.20;;;18.20;99.90;;;;;;4589134;19;20251;-36
2022/09/20 05:11:08;;;;;;;5.28;3.42;;;18.20;99.90;;;;;;4589202;19;20015;-36
2022/09/20 05:12:54;;;;;;;8.20;5.72;;;18.20;99.90;;;;;;4588270;19;20018;-37
2022/09/20 05:14:44;;;;;;;12.07;7.60;;;18.20;99.90;;;;;;4586930;19;20469;-36
2022/09/20 05:16:30;;;;;;;10.95;6.63;;;18.20;99.90;;;;;;4586592;19;20029;-36
2022/09/20 05:18:20;;;;;;;10.35;6.18;;;18.20;99.90;;;;;;4585125;19;20060;-36
2022/09/20 05:20:45;;;;;;;9.40;5.03;;;18.20;99.90;;;;;;4588375;19;20015;-35
2022/09/20 05:22:42;;;;;;;7.47;4.93;;;18.20;99.90;;;;;;4454373;19;3033015;-36
2022/09/20 05:24:24;;;;;;;6.63;4.05;;;18.20;99.90;;;;;;4610573;19;20014;-35
2022/09/20 05:26:07;;;;;;;6.47;4.07;;;18.30;99.90;;;;;;4610467;19;20022;-35
2022/09/20 05:28:03;;;;;;;5.93;3.95;;;18.40;99.90;;;;;;4611913;19;20007;-35
2022/09/20 05:29:50;;;;;;;5.65;3.78;;;18.50;99.90;;;;;;4610891;19;20014;-35
2022/09/20 05:31:29;;;;;;;5.78;4.40;;;18.60;99.90;;;;;;4611723;19;20006;-36
2022/09/20 05:33:09;;;;;;;9.05;6.03;;;17.40;99.90;;;;;;4610478;19;20062;-35
2022/09/20 05:35:34;;;;;;;8.05;5.60;;;15.80;99.90;;;;;;4610577;19;20011;-35
2022/09/20 05:37:15;;;;;;;7.97;5.07;;;15.00;99.90;;;;;;4609235;19;20024;-35
2022/09/20 05:38:51;;;;;;;7.28;4.78;;;15.00;99.90;;;;;;4609260;19;20015;-36
2022/09/20 05:41:00;;;;;;;7.85;5.45;;;15.80;99.90;;;;;;4609381;19;20010;-36
2022/09/20 05:42:46;;;;;;;7.60;4.10;;;16.60;99.90;;;;;;4609364;19;20081;-36
2022/09/20 05:44:49;;;;;;;7.78;4.82;;;17.10;99.90;;;;;;4609186;19;20468;-35
2022/09/20 05:46:49;;;;;;;8.10;4.75;;;17.40;99.90;;;;;;4609195;19;20065;-36
2022/09/20 05:48:42;;;;;;;8.23;4.60;;;17.70;99.90;;;;;;4608697;19;20135;-36
2022/09/20 05:50:36;;;;;;;7.90;3.58;;;17.80;99.90;;;;;;4608698;19;20024;-36
2022/09/20 05:52:22;;;;;;;4.88;3.50;;;17.90;99.90;;;;;;4608517;19;20093;-35
2022/09/20 05:54:06;;;;;;;4.72;3.50;;;17.10;99.90;;;;;;4608446;19;20476;-35
2022/09/20 05:55:49;;;;;;;4.80;3.42;;;15.70;99.90;;;;;;4606970;19;20074;-36
2022/09/20 05:57:28;;;;;;;4.13;3.33;;;15.00;99.90;;;;;;4608358;19;20018;-34
2022/09/20 05:59:18;;;;;;;4.77;3.30;;;14.80;99.90;;;;;;4609204;19;20011;-35
2022/09/20 06:01:24;;;;;;;5.50;3.93;;;14.70;99.90;;;;;;4607925;19;20018;-35
2022/09/20 06:03:04;;;;;;;6.30;4.27;;;14.60;99.90;;;;;;4608332;19;20480;-35
2022/09/20 06:04:45;;;;;;;4.80;3.60;;;14.60;99.90;;;;;;4608898;19;20025;-35
2022/09/20 06:06:17;;;;;;;4.70;3.28;;;14.60;99.90;;;;;;4607994;19;20015;-34
2022/09/20 06:08:07;;;;;;;5.10;3.35;;;14.60;99.90;;;;;;4608651;19;20149;-35
2022/09/20 06:10:04;;;;;;;5.40;3.40;;;14.50;99.90;;;;;;4608959;19;20041;-35
2022/09/20 06:12:00;;;;;;;4.10;2.90;;;14.60;99.90;;;;;;4608329;19;20148;-35
2022/09/20 06:13:58;;;;;;;5.13;3.57;;;14.50;99.90;;;;;;4606776;19;20366;-34
2022/09/20 06:15:53;;;;;;;4.07;3.10;;;14.50;99.90;;;;;;4609233;19;20089;-35
2022/09/20 06:17:26;;;;;;;5.17;3.43;;;14.60;99.90;;;;;;4608304;19;20022;-36
2022/09/20 06:19:26;;;;;;;4.20;3.37;;;14.60;99.90;;;;;;4606839;19;20002;-35
2022/09/20 06:21:18;;;;;;;5.03;3.63;;;14.60;99.90;;;;;;4607660;19;20006;-36
2022/09/20 06:22:51;;;;;;;5.82;3.40;;;14.60;99.90;;;;;;4607568;19;20018;-36
2022/09/20 06:24:43;;;;;;;5.53;4.10;;;14.60;99.90;;;;;;4606060;19;20041;-36
2022/09/20 06:26:23;;;;;;;5.00;3.67;;;14.60;99.90;;;;;;4607700;19;20011;-36
2022/09/20 06:27:55;;;;;;;5.37;3.80;;;14.60;99.90;;;;;;4606624;19;20022;-36
2022/09/20 06:29:32;;;;;;;7.63;4.83;;;14.60;99.90;;;;;;4606964;19;20051;-36
2022/09/20 06:31:07;;;;;;;5.33;3.60;;;14.60;99.90;;;;;;4607885;19;20010;-36
2022/09/20 06:33:09;;;;;;;5.27;3.93;;;14.60;99.90;;;;;;4604495;19;20015;-36
2022/09/20 06:34:41;;;;;;;5.37;3.47;;;14.60;99.90;;;;;;4590673;19;20014;-36
2022/09/20 06:42:23;;;;;;;8.20;6.13;;;14.60;99.90;;;;;;4587563;19;20018;-36
2022/09/20 06:43:57;;;;;;;7.00;5.90;;;14.60;99.90;;;;;;4588746;19;20021;-36
2022/09/20 06:45:30;;;;;;;7.67;4.83;;;14.60;99.90;;;;;;4588706;19;20010;-36
2022/09/20 06:47:02;;;;;;;5.30;4.40;;;14.60;99.90;;;;;;4588506;19;20015;-36
2022/09/20 06:48:34;;;;;;;5.25;4.13;;;14.60;99.90;;;;;;4589160;19;20763;-36
2022/09/20 06:50:06;;;;;;;6.20;4.57;;;14.60;99.90;;;;;;4588575;19;20014;-36
2022/09/20 06:51:37;;;;;;;6.45;4.65;;;14.60;99.90;;;;;;4589012;19;20018;-36
2022/09/20 06:53:16;;;;;;;5.25;3.72;;;14.60;99.90;;;;;;4588558;19;20028;-36
2022/09/20 06:54:50;;;;;;;6.33;4.27;;;14.60;99.90;;;;;;4588252;19;20038;-37
2022/09/20 06:56:25;;;;;;;6.40;4.17;;;14.60;99.90;;;;;;4588112;19;20499;-36
2022/09/20 06:57:56;;;;;;;5.07;3.80;;;14.50;99.90;;;;;;4589879;19;20338;-36
2022/09/20 06:59:27;;;;;;;5.63;4.10;;;14.60;99.90;;;;;;4589740;19;20031;-36
2022/09/20 07:01:00;;;;;;;5.35;4.13;;;14.50;99.90;;;;;;4591659;19;20362;-36
2022/09/20 07:02:42;;;;;;;5.90;4.30;;;14.50;99.90;;;;;;4589083;19;20011;-36
2022/09/20 07:04:16;;;;;;;4.90;3.90;;;14.50;99.90;;;;;;4590981;19;20031;-36
2022/09/20 07:05:51;;;;;;;6.68;4.65;;;14.50;99.90;;;;;;4592244;19;20025;-36
2022/09/20 07:07:22;;;;;;;6.37;4.50;;;14.50;99.90;;;;;;4591654;19;20018;-36
2022/09/20 07:08:53;;;;;;;5.85;4.70;;;14.50;99.90;;;;;;4591381;19;20018;-36
2022/09/20 07:10:26;;;;;;;6.70;4.10;;;14.60;99.90;;;;;;4590666;19;20074;-34
2022/09/20 07:11:58;;;;;;;6.13;4.43;;;14.70;99.90;;;;;;4590924;19;20014;-34
2022/09/20 07:13:29;;;;;;;5.47;3.88;;;15.20;99.90;;;;;;4590698;19;20096;-34
2022/09/20 07:15:00;;;;;;;6.95;4.22;;;15.60;99.90;;;;;;4591902;19;20023;-34
2022/09/20 07:16:31;;;;;;;5.88;4.13;;;16.00;99.90;;;;;;4591697;19;20029;-34
2022/09/20 07:18:02;;;;;;;6.30;4.03;;;16.20;99.90;;;;;;4592155;19;20077;-34
2022/09/20 07:19:35;;;;;;;5.88;4.28;;;16.40;99.90;;;;;;4591551;19;20043;-34
2022/09/20 07:21:14;;;;;;;5.35;3.45;;;16.60;99.90;;;;;;4591368;19;20503;-34
2022/09/20 07:22:46;;;;;;;7.15;3.35;;;16.70;99.90;;;;;;4590225;19;20038;-34
2022/09/20 07:24:17;;;;;;;5.53;3.63;;;16.80;99.90;;;;;;4591692;19;20021;-35
2022/09/20 07:25:48;;;;;;;5.03;3.40;;;16.90;99.90;;;;;;4592041;19;20019;-34
2022/09/20 07:27:20;;;;;;;5.95;3.97;;;17.00;99.90;;;;;;4591106;19;20035;-34
2022/09/20 07:28:51;;;;;;;4.47;3.33;;;17.10;99.90;;;;;;4591046;19;20011;-35
2022/09/20 07:30:22;;;;;;;6.50;4.38;;;17.10;99.90;;;;;;4591363;19;20037;-35
2022/09/20 07:31:54;;;;;;;;;;;17.20;99.90;;;;;;4592213;19;20007;-34
2022/09/20 07:33:25;;;;;;;5.43;3.70;;;17.20;99.90;;;;;;4591136;19;20252;-34
2022/09/20 07:34:56;;;;;;;4.28;2.90;;;17.30;99.90;;;;;;4590132;19;20010;-34
2022/09/20 07:36:28;;;;;;;5.72;3.67;;;17.40;99.90;;;;;;4591218;19;20661;-34
2022/09/20 07:37:59;;;;;;;3.97;3.10;;;17.40;99.90;;;;;;4591065;19;20033;-35
2022/09/20 07:39:31;;;;;;;4.65;3.20;;;17.40;99.90;;;;;;4591379;19;20039;-34
2022/09/20 07:41:02;;;;;;;4.68;3.25;;;17.50;99.90;;;;;;4590414;19;20015;-34
2022/09/20 07:42:35;;;;;;;4.65;2.30;;;17.50;99.90;;;;;;4590006;19;20386;-34
2022/09/20 07:44:20;;;;;;;4.25;1.88;;;17.50;99.90;;;;;;4590638;19;20010;-35
2022/09/20 07:45:54;;;;;;;3.10;2.20;;;17.50;99.90;;;;;;4591009;19;20015;-34
2022/09/20 07:47:26;;;;;;;4.60;2.97;;;17.50;99.90;;;;;;4590086;19;20383;-34
2022/09/20 07:48:57;;;;;;;;;;;17.60;99.90;;;;;;4591816;19;20349;-34
2022/09/20 07:50:29;;;;;;;2.95;2.05;;;17.60;99.90;;;;;;4590704;19;19934;-35
2022/09/20 07:52:00;;;;;;;2.88;1.88;;;17.60;99.90;;;;;;4591060;19;20018;-35
2022/09/20 07:53:31;;;;;;;2.75;1.77;;;17.60;99.90;;;;;;4591066;19;20014;-34
2022/09/20 07:55:03;;;;;;;3.25;2.03;;;17.60;99.90;;;;;;4590265;19;20011;-34
2022/09/20 07:56:35;;;;;;;2.40;1.60;;;17.70;99.90;;;;;;4590112;19;20010;-34
2022/09/20 07:58:07;;;;;;;4.00;2.15;;;17.70;99.90;;;;;;4588310;19;20015;-34
2022/09/20 07:59:38;;;;;;;3.50;1.98;;;17.70;99.90;;;;;;4588341;19;20011;-34
2022/09/20 08:01:19;;;;;;;2.70;1.80;;;17.70;99.90;;;;;;4588641;19;20034;-34
2022/09/20 08:03:04;;;;;;;2.72;1.80;;;17.70;99.90;;;;;;4588192;19;20010;-34
2022/09/20 08:04:37;;;;;;;3.20;1.80;;;17.80;99.90;;;;;;4588443;19;20014;-35
2022/09/20 08:06:10;;;;;;;3.92;1.83;;;17.80;99.90;;;;;;4587945;19;20027;-35
2022/09/20 08:07:58;;;;;;;2.42;1.50;;;17.80;99.90;;;;;;4588479;19;20395;-35
2022/09/20 08:09:30;;;;;;;2.72;1.73;;;17.80;99.90;;;;;;4588163;19;20025;-34
2022/09/20 08:11:13;;;;;;;3.03;1.58;;;17.80;99.90;;;;;;4588514;19;20015;-34
2022/09/20 08:12:44;;;;;;;3.50;2.20;;;17.80;99.90;;;;;;4587539;19;20018;-34
2022/09/20 08:14:16;;;;;;;3.47;1.90;;;17.80;99.90;;;;;;4588640;19;20082;-35
2022/09/20 08:15:47;;;;;;;2.50;1.52;;;17.30;99.90;;;;;;4588612;19;20011;-35
2022/09/20 08:17:19;;;;;;;;;;;17.40;99.90;;;;;;4589106;19;20501;-34
2022/09/20 08:18:51;;;;;;;2.20;1.25;;;17.50;99.90;;;;;;4588529;19;20407;-34
2022/09/20 08:20:22;;;;;;;2.42;1.40;;;17.70;99.90;;;;;;4587737;19;20013;-35
2022/09/20 08:21:54;;;;;;;3.83;1.83;;;17.80;99.90;;;;;;4586692;19;20026;-35
2022/09/20 08:23:26;;;;;;;1.98;1.13;;;17.80;99.90;;;;;;4587560;19;20014;-35
2022/09/20 08:24:57;;;;;;;4.07;2.22;;;17.90;99.90;;;;;;4588110;19;20014;-35
2022/09/20 08:26:28;;;;;;;3.28;2.00;;;17.90;99.90;;;;;;4588371;19;20011;-35
2022/09/20 08:27:59;;;;;;;3.35;1.50;;;18.00;99.90;;;;;;4586891;19;20043;-35
2022/09/20 08:29:32;;;;;;;2.15;1.20;;;18.10;99.90;;;;;;4588550;19;20017;-35
2022/09/20 08:31:13;;;;;;;1.33;1.00;;;18.10;99.90;;;;;;4589578;19;20021;-35
2022/09/20 08:32:44;;;;;;;2.60;1.35;;;18.10;99.90;;;;;;4589803;19;20038;-35
2022/09/20 08:34:16;;;;;;;1.38;1.00;;;18.10;99.90;;;;;;4589403;19;20499;-35
2022/09/20 08:35:48;;;;;;;1.92;1.25;;;18.10;99.90;;;;;;4588966;19;20014;-35
2022/09/20 08:37:19;;;;;;;2.63;1.40;;;18.10;99.90;;;;;;4589180;19;20017;-35
2022/09/20 08:38:51;;;;;;;2.38;1.20;;;18.10;99.90;;;;;;4590138;19;20007;-34
2022/09/20 08:40:23;;;;;;;2.45;1.55;;;18.20;99.90;;;;;;4589836;19;20006;-35
2022/09/20 08:42:17;;;;;;;2.20;1.20;;;18.20;99.90;;;;;;4588171;19;20078;-35
2022/09/20 08:43:55;;;;;;;2.33;1.10;;;18.20;99.90;;;;;;4589492;19;20011;-35
2022/09/20 08:45:26;;;;;;;2.30;1.40;;;18.20;99.90;;;;;;4589853;19;20066;-35
2022/09/20 08:47:20;;;;;;;2.78;1.42;;;18.20;99.90;;;;;;4590086;19;20018;-35
2022/09/20 08:48:57;;;;;;;2.00;1.30;;;18.20;99.90;;;;;;4588709;19;20017;-35
2022/09/20 08:50:28;;;;;;;2.80;1.27;;;18.20;99.90;;;;;;4588658;19;20006;-35
2022/09/20 08:52:01;;;;;;;2.25;1.33;;;18.20;99.90;;;;;;4587480;19;20014;-35
2022/09/20 08:53:32;;;;;;;1.27;0.90;;;18.20;99.90;;;;;;4588822;19;20350;-35
2022/09/20 08:55:13;;;;;;;2.22;1.20;;;18.20;99.90;;;;;;4588050;19;20007;-35
2022/09/20 08:56:47;;;;;;;4.35;1.52;;;18.30;99.90;;;;;;4587409;19;20388;-35
2022/09/20 08:58:18;;;;;;;2.63;1.58;;;18.20;99.90;;;;;;4588988;19;20007;-35
2022/09/20 08:59:49;;;;;;;2.35;1.40;;;18.20;99.90;;;;;;4585918;19;20014;-35